Time;durP1;ratioP1;P1;durP2;ratioP2;P2;SDS_P1;SDS_P2;PMS_P1;PMS_P2;Temp;Humidity;BMP_temperature;BMP_pressure;BME280_temperature;BME280_humidity;BME280_pressure;Samples;Min_cycle;Max_cycle;Signal;HPM_P1;HPM_P2
2022/02/28 00:01:28;;;;;;;11.80;3.60;;;5.20;99.90;;;;;;5144188;23;20547;-94
2022/02/28 00:03:31;;;;;;;6.50;3.03;;;5.20;99.90;;;;;;5144579;23;20586;-95
2022/02/28 00:05:33;;;;;;;5.43;2.80;;;5.10;99.90;;;;;;5144136;23;20171;-95
2022/02/28 00:07:41;;;;;;;10.00;3.60;;;5.10;99.90;;;;;;5145253;23;20239;-94
2022/02/28 00:09:41;;;;;;;5.90;2.97;;;5.10;99.90;;;;;;5194437;22;20181;-96
2022/02/28 00:11:42;;;;;;;9.07;3.13;;;5.10;99.90;;;;;;5143992;23;20243;-95
2022/02/28 00:13:43;;;;;;;8.83;2.93;;;5.10;99.90;;;;;;5169450;23;20155;-95
2022/02/28 00:15:47;;;;;;;5.77;3.00;;;5.30;99.90;;;;;;5145073;23;20610;-94
2022/02/28 00:17:47;;;;;;;11.20;3.50;;;5.20;99.90;;;;;;5169193;23;20143;-95
2022/02/28 00:19:48;;;;;;;7.20;2.67;;;5.40;99.90;;;;;;5195791;22;20601;-95
2022/02/28 00:21:52;;;;;;;9.50;3.10;;;5.40;99.90;;;;;;5144386;23;20658;-95
2022/02/28 00:23:55;;;;;;;10.73;3.40;;;5.30;99.90;;;;;;5144053;23;20163;-95
2022/02/28 00:26:04;;;;;;;5.50;2.60;;;5.30;99.90;;;;;;5170669;23;20167;-95
2022/02/28 00:28:07;;;;;;;7.20;3.20;;;5.30;99.90;;;;;;5169937;23;20151;-95
2022/02/28 00:30:15;;;;;;;8.33;2.97;;;5.20;99.90;;;;;;5194266;22;20265;-94
2022/02/28 00:32:16;;;;;;;6.27;2.87;;;5.10;99.90;;;;;;5169668;23;20190;-94
2022/02/28 00:34:19;;;;;;;8.33;3.27;;;5.10;99.90;;;;;;5143968;23;20582;-94
2022/02/28 00:36:20;;;;;;;11.00;3.37;;;5.20;99.90;;;;;;5168911;22;20509;-95
2022/02/28 00:38:21;;;;;;;7.03;2.80;;;5.20;99.90;;;;;;5169322;23;20242;-95
2022/02/28 00:40:22;;;;;;;7.37;2.83;;;5.40;99.90;;;;;;5143695;23;20147;-94
2022/02/28 00:42:23;;;;;;;7.07;2.77;;;5.20;99.90;;;;;;5168420;23;20297;-95
2022/02/28 00:44:25;;;;;;;7.03;3.17;;;5.10;99.90;;;;;;5168790;23;20159;-95
2022/02/28 00:46:26;;;;;;;8.13;3.10;;;5.10;99.90;;;;;;5143494;23;20174;-93
2022/02/28 00:48:26;;;;;;;6.57;2.70;;;5.10;99.90;;;;;;5144220;23;20148;-94
2022/02/28 00:50:28;;;;;;;6.90;3.33;;;5.10;99.90;;;;;;5168538;23;20187;-94
2022/02/28 00:52:28;;;;;;;5.70;2.70;;;5.00;99.90;;;;;;5168823;23;20578;-95
2022/02/28 00:54:32;;;;;;;10.13;3.20;;;4.90;99.90;;;;;;5143650;23;20491;-95
2022/02/28 00:56:36;;;;;;;8.27;3.03;;;4.80;99.90;;;;;;5143612;23;20225;-95
2022/02/28 00:58:52;;;;;;;7.37;3.17;;;4.80;99.90;;;;;;5143321;23;20511;-95
2022/02/28 01:00:53;;;;;;;8.07;3.17;;;4.90;99.90;;;;;;5144387;23;20143;-95
2022/02/28 01:02:54;;;;;;;6.57;3.00;;;4.90;99.90;;;;;;5168834;23;20159;-94
2022/02/28 01:04:56;;;;;;;9.40;3.17;;;4.90;99.90;;;;;;5168494;22;20170;-93
2022/02/28 01:06:57;;;;;;;5.87;2.63;;;4.90;99.90;;;;;;5169618;23;20159;-95
2022/02/28 01:09:01;;;;;;;8.30;2.73;;;4.90;99.90;;;;;;5168581;23;20596;-95
2022/02/28 01:11:08;;;;;;;5.13;2.70;;;5.00;99.90;;;;;;5143655;23;20191;-95
2022/02/28 01:13:10;;;;;;;6.37;2.40;;;5.00;99.90;;;;;;5168705;23;20612;-94
2022/02/28 01:15:42;;;;;;;4.93;2.47;;;5.00;99.90;;;;;;5169730;22;20170;-95
2022/02/28 01:17:50;;;;;;;6.13;2.93;;;4.90;99.90;;;;;;5146285;23;20151;-94
2022/02/28 01:19:54;;;;;;;6.77;2.60;;;4.90;99.90;;;;;;5168878;22;20143;-95
2022/02/28 01:22:04;;;;;;;6.57;3.17;;;4.80;99.90;;;;;;5168809;23;20213;-94
2022/02/28 01:24:05;;;;;;;9.50;3.13;;;4.80;99.90;;;;;;5168350;23;20167;-96
2022/02/28 01:26:07;;;;;;;6.83;2.90;;;4.80;99.90;;;;;;5193885;22;20216;-94
2022/02/28 01:28:08;;;;;;;8.70;2.83;;;4.80;99.90;;;;;;5146234;23;20152;-94
2022/02/28 01:30:10;;;;;;;7.10;2.93;;;5.00;99.90;;;;;;5168566;23;20280;-95
2022/02/28 01:32:24;;;;;;;8.27;3.33;;;5.20;99.90;;;;;;5169597;23;20147;-94
2022/02/28 01:34:26;;;;;;;7.70;3.00;;;5.30;99.90;;;;;;5143271;23;20191;-94
2022/02/28 01:36:26;;;;;;;7.13;2.97;;;5.20;99.90;;;;;;5143415;23;20230;-94
2022/02/28 01:38:32;;;;;;;5.60;2.80;;;5.30;99.90;;;;;;5168587;23;20475;-94
2022/02/28 01:40:33;;;;;;;8.67;3.13;;;5.30;99.90;;;;;;5145894;23;20265;-94
2022/02/28 01:42:34;;;;;;;9.67;2.97;;;5.30;99.90;;;;;;5168483;23;20151;-96
2022/02/28 01:44:34;;;;;;;5.23;2.53;;;5.30;99.90;;;;;;5143744;23;20672;-94
2022/02/28 01:46:38;;;;;;;6.70;3.17;;;5.30;99.90;;;;;;5170186;22;20158;-95
2022/02/28 01:48:39;;;;;;;5.93;2.93;;;5.30;99.90;;;;;;5143294;23;20194;-94
2022/02/28 01:50:40;;;;;;;8.43;3.40;;;5.30;99.90;;;;;;5194450;22;20194;-94
2022/02/28 01:52:41;;;;;;;7.50;2.93;;;5.20;99.90;;;;;;5142830;23;20273;-95
2022/02/28 01:54:45;;;;;;;7.57;3.07;;;5.10;99.90;;;;;;5168649;22;20181;-94
2022/02/28 01:56:46;;;;;;;7.30;2.97;;;4.70;99.90;;;;;;5143185;23;20152;-95
2022/02/28 01:58:47;;;;;;;9.03;3.00;;;4.80;99.90;;;;;;5145376;23;20151;-94
2022/02/28 02:00:48;;;;;;;8.63;2.83;;;4.80;99.90;;;;;;5143258;23;20162;-94
2022/02/28 02:02:49;;;;;;;6.07;2.70;;;4.90;99.90;;;;;;5195856;22;20150;-94
2022/02/28 02:04:50;;;;;;;7.57;3.17;;;4.80;99.90;;;;;;5168712;22;20269;-95
2022/02/28 02:06:52;;;;;;;7.60;3.23;;;4.70;99.90;;;;;;5168720;23;20664;-94
2022/02/28 02:08:54;;;;;;;7.40;2.97;;;4.60;99.90;;;;;;5168408;23;20154;-95
2022/02/28 02:10:55;;;;;;;8.53;2.90;;;4.50;99.90;;;;;;5143141;23;20191;-94
2022/02/28 02:12:56;;;;;;;7.07;3.10;;;4.50;99.90;;;;;;5143173;23;20179;-95
2022/02/28 02:15:00;;;;;;;7.07;2.50;;;4.40;99.90;;;;;;5169307;22;20182;-94
2022/02/28 02:17:03;;;;;;;6.83;2.90;;;4.30;99.90;;;;;;5168428;23;20188;-94
2022/02/28 02:19:04;;;;;;;8.20;3.00;;;4.20;99.90;;;;;;5168175;23;20147;-95
2022/02/28 02:21:05;;;;;;;7.73;3.17;;;4.20;99.90;;;;;;5167920;23;20615;-94
2022/02/28 02:23:12;;;;;;;8.33;3.00;;;4.20;99.90;;;;;;5143330;23;20156;-94
2022/02/28 02:25:12;;;;;;;10.57;3.47;;;4.20;99.90;;;;;;5168338;23;20171;-93
2022/02/28 02:27:14;;;;;;;6.70;3.20;;;4.10;99.90;;;;;;5170101;23;20301;-94
2022/02/28 02:29:14;;;;;;;8.50;2.90;;;4.00;99.90;;;;;;5145008;23;20151;-95
2022/02/28 02:31:17;;;;;;;6.97;3.20;;;4.00;99.90;;;;;;5168653;23;20237;-94
2022/02/28 02:33:21;;;;;;;9.20;3.57;;;4.00;99.90;;;;;;5143557;23;20218;-96
2022/02/28 02:35:25;;;;;;;10.20;3.60;;;4.00;99.90;;;;;;5192790;22;20178;-94
2022/02/28 02:37:26;;;;;;;8.80;3.27;;;4.00;99.90;;;;;;5167868;23;20631;-94
2022/02/28 02:39:27;;;;;;;9.80;3.60;;;3.90;99.90;;;;;;5144480;23;20159;-94
2022/02/28 02:41:29;;;;;;;8.23;3.70;;;3.90;99.90;;;;;;5168405;23;20514;-95
2022/02/28 02:43:30;;;;;;;7.93;3.83;;;3.90;99.90;;;;;;5168553;23;20162;-94
2022/02/28 02:45:32;;;;;;;14.43;4.13;;;3.90;99.90;;;;;;5168958;22;20166;-95
2022/02/28 02:47:34;;;;;;;10.70;4.20;;;4.00;99.90;;;;;;5168115;23;20163;-94
2022/02/28 02:49:41;;;;;;;14.23;4.30;;;4.00;99.90;;;;;;5169404;22;20186;-94
2022/02/28 02:51:43;;;;;;;12.93;4.33;;;4.10;99.90;;;;;;5167817;23;20234;-95
2022/02/28 02:53:45;;;;;;;9.70;4.20;;;4.10;99.90;;;;;;5142977;23;20158;-94
2022/02/28 02:55:46;;;;;;;11.53;4.40;;;4.10;99.90;;;;;;5167741;22;20506;-94
2022/02/28 02:57:47;;;;;;;11.77;4.17;;;4.10;99.90;;;;;;5143373;23;20147;-95
2022/02/28 02:59:50;;;;;;;12.37;5.13;;;4.10;99.90;;;;;;5143276;23;20147;-94
2022/02/28 03:01:51;;;;;;;14.20;4.63;;;4.00;99.90;;;;;;5168219;23;20158;-94
2022/02/28 03:03:52;;;;;;;10.07;4.63;;;4.10;99.90;;;;;;5167945;23;20147;-94
2022/02/28 03:05:53;;;;;;;11.37;4.87;;;4.20;99.90;;;;;;5145956;23;20179;-95
2022/02/28 03:07:55;;;;;;;12.37;4.37;;;4.20;99.90;;;;;;5171115;23;20147;-95
2022/02/28 03:09:57;;;;;;;13.93;4.93;;;4.10;99.90;;;;;;5145365;23;20183;-95
2022/02/28 03:11:58;;;;;;;10.97;4.73;;;4.10;99.90;;;;;;5169373;23;20155;-94
2022/02/28 03:13:59;;;;;;;16.53;5.00;;;4.10;99.90;;;;;;5169891;23;20489;-94
2022/02/28 03:16:00;;;;;;;14.43;5.23;;;4.10;99.90;;;;;;5144794;23;20179;-94
2022/02/28 03:18:03;;;;;;;14.40;5.83;;;4.10;99.90;;;;;;5144944;23;20144;-94
2022/02/28 03:20:04;;;;;;;13.83;5.57;;;4.10;99.90;;;;;;5169575;23;20289;-93
2022/02/28 03:22:05;;;;;;;18.30;6.27;;;4.00;99.90;;;;;;5169235;23;20513;-93
2022/02/28 03:24:10;;;;;;;13.93;5.47;;;4.00;99.90;;;;;;5169943;23;20155;-95
2022/02/28 03:26:11;;;;;;;18.07;5.80;;;4.00;99.90;;;;;;5144319;23;20183;-94
2022/02/28 03:28:15;;;;;;;18.80;6.17;;;4.00;99.90;;;;;;5144774;23;20530;-95
2022/02/28 03:30:16;;;;;;;19.83;6.00;;;4.00;99.90;;;;;;5170139;23;20213;-94
2022/02/28 03:32:17;;;;;;;17.23;5.47;;;4.00;99.90;;;;;;5169316;23;20249;-94
2022/02/28 03:34:18;;;;;;;17.30;5.77;;;4.10;99.90;;;;;;5169703;23;20189;-96
2022/02/28 03:36:18;;;;;;;19.17;6.50;;;4.10;99.90;;;;;;5145430;23;20178;-94
2022/02/28 03:38:24;;;;;;;23.97;6.87;;;4.00;99.90;;;;;;5145799;23;20158;-94
2022/02/28 03:40:24;;;;;;;21.27;6.97;;;3.80;99.90;;;;;;5144955;23;20152;-94
2022/02/28 03:42:25;;;;;;;19.30;6.20;;;3.80;99.90;;;;;;5169400;23;20163;-94
2022/02/28 03:44:26;;;;;;;17.77;6.80;;;3.90;99.90;;;;;;5169423;22;20167;-93
2022/02/28 03:46:34;;;;;;;18.63;6.10;;;4.10;99.90;;;;;;5145738;23;20147;-94
2022/02/28 03:48:50;;;;;;;17.33;5.90;;;4.10;99.90;;;;;;5192983;22;20170;-94
2022/02/28 03:51:07;;;;;;;14.80;5.90;;;4.00;99.90;;;;;;5148808;23;20206;-94
2022/02/28 03:53:08;;;;;;;23.27;5.80;;;3.90;99.90;;;;;;5145326;23;20151;-95
2022/02/28 03:55:12;;;;;;;19.00;5.67;;;3.90;99.90;;;;;;5146330;23;20178;-94
2022/02/28 03:57:12;;;;;;;15.50;5.83;;;3.80;99.90;;;;;;5144691;23;20604;-94
2022/02/28 03:59:14;;;;;;;14.13;6.00;;;3.90;99.90;;;;;;5194704;22;20188;-96
2022/02/28 04:01:15;;;;;;;17.57;5.80;;;3.90;99.90;;;;;;5169891;23;20159;-95
2022/02/28 04:03:19;;;;;;;15.47;5.60;;;3.90;99.90;;;;;;5144754;23;20144;-95
2022/02/28 04:05:20;;;;;;;16.50;6.00;;;4.00;99.90;;;;;;5169883;22;20177;-95
2022/02/28 04:07:24;;;;;;;13.47;5.43;;;4.10;99.90;;;;;;5169890;22;20210;-94
2022/02/28 04:09:25;;;;;;;19.23;5.47;;;4.20;99.90;;;;;;5169421;23;20166;-95
2022/02/28 04:11:28;;;;;;;18.90;5.13;;;4.10;99.90;;;;;;5194568;22;20201;-95
2022/02/28 04:13:31;;;;;;;15.43;5.60;;;4.20;99.90;;;;;;5144593;23;20156;-94
2022/02/28 04:15:32;;;;;;;15.47;5.67;;;4.10;99.90;;;;;;5169157;23;20261;-94
2022/02/28 04:17:33;;;;;;;18.67;5.87;;;4.10;99.90;;;;;;5169422;23;20151;-95
2022/02/28 04:19:53;;;;;;;15.10;5.33;;;4.10;99.90;;;;;;5147877;23;20565;-94
2022/02/28 04:21:56;;;;;;;12.40;5.17;;;4.20;99.90;;;;;;5144204;23;20148;-95
2022/02/28 04:23:57;;;;;;;13.27;5.50;;;4.20;99.90;;;;;;5145449;23;20144;-96
2022/02/28 04:26:02;;;;;;;10.77;4.90;;;4.40;99.90;;;;;;5146116;23;20247;-95
2022/02/28 04:28:04;;;;;;;18.27;5.23;;;4.30;99.90;;;;;;5169579;23;20162;-94
2022/02/28 04:30:06;;;;;;;12.97;5.27;;;4.40;99.90;;;;;;5145654;23;20195;-95
2022/02/28 04:32:07;;;;;;;14.43;5.07;;;4.30;99.90;;;;;;5146434;23;20147;-96
2022/02/28 04:34:14;;;;;;;9.97;4.70;;;4.20;99.90;;;;;;5198980;22;20161;-96
2022/02/28 04:36:15;;;;;;;18.03;5.57;;;4.20;99.90;;;;;;5169712;22;20170;-95
2022/02/28 04:38:18;;;;;;;21.13;4.90;;;4.00;99.90;;;;;;5169570;23;20312;-95
2022/02/28 04:40:25;;;;;;;9.57;4.20;;;4.00;99.90;;;;;;5145562;23;20152;-95
2022/02/28 04:42:27;;;;;;;11.93;4.73;;;3.90;99.90;;;;;;5147887;23;20156;-96
2022/02/28 04:44:31;;;;;;;10.43;4.57;;;4.00;99.90;;;;;;5145134;23;20171;-95
2022/02/28 04:46:32;;;;;;;11.67;4.30;;;4.10;99.90;;;;;;5145772;23;20155;-94
2022/02/28 04:48:50;;;;;;;10.13;4.23;;;4.20;99.90;;;;;;5170861;23;20151;-94
2022/02/28 04:51:11;;;;;;;10.27;4.63;;;4.30;99.90;;;;;;5170308;23;20195;-95
2022/02/28 04:53:15;;;;;;;10.17;4.53;;;4.30;99.90;;;;;;5146002;23;20621;-95
2022/02/28 04:55:27;;;;;;;10.77;4.43;;;4.20;99.90;;;;;;5196076;22;20224;-95
2022/02/28 04:57:46;;;;;;;9.40;4.17;;;4.30;99.90;;;;;;5170414;23;20200;-95
2022/02/28 05:00:04;;;;;;;8.63;3.93;;;4.10;99.90;;;;;;5171339;23;20154;-94
2022/02/28 05:02:35;;;;;;;;;;;;;;;;;;;;;
2022/02/28 05:04:57;;;;;;;13.60;4.63;;;4.00;99.90;;;;;;5173195;22;20179;-94
2022/02/28 05:07:09;;;;;;;13.10;4.93;;;3.90;99.90;;;;;;5147262;23;20590;-95
2022/02/28 05:09:28;;;;;;;10.67;4.63;;;4.00;99.90;;;;;;5172766;23;20178;-93
2022/02/28 05:11:29;;;;;;;11.63;5.00;;;4.00;99.90;;;;;;5157674;22;20218;-94
2022/02/28 05:13:35;;;;;;;13.80;4.13;;;4.00;99.90;;;;;;5190153;22;20142;-94
2022/02/28 05:15:45;;;;;;;15.67;4.50;;;4.10;99.90;;;;;;5215994;22;20170;-94
2022/02/28 05:18:00;;;;;;;11.80;4.60;;;4.10;99.90;;;;;;5163469;22;20147;-95
2022/02/28 05:20:07;;;;;;;10.13;4.57;;;4.20;99.90;;;;;;5164537;23;20215;-94
2022/02/28 05:22:11;;;;;;;10.63;4.90;;;3.90;99.90;;;;;;5189882;23;20206;-96
2022/02/28 05:24:26;;;;;;;14.70;5.30;;;3.90;99.90;;;;;;5193606;22;20173;-94
2022/02/28 05:26:29;;;;;;;10.90;4.40;;;3.90;99.90;;;;;;5162351;22;20143;-94
2022/02/28 05:28:31;;;;;;;13.03;5.17;;;3.90;99.90;;;;;;5188750;22;20246;-94
2022/02/28 05:30:34;;;;;;;14.73;5.17;;;4.00;99.90;;;;;;5163963;23;20203;-94
2022/02/28 05:32:41;;;;;;;13.23;4.60;;;3.90;99.90;;;;;;5164915;23;20171;-93
2022/02/28 05:35:17;;;;;;;13.53;4.83;;;3.90;99.90;;;;;;5181335;22;20166;-94
2022/02/28 05:37:48;;;;;;;10.90;4.73;;;4.00;99.90;;;;;;5170287;22;20143;-94
2022/02/28 05:39:49;;;;;;;12.90;5.20;;;3.90;99.90;;;;;;5164191;23;20144;-93
2022/02/28 05:42:15;;;;;;;12.73;4.73;;;3.90;99.90;;;;;;5188061;22;20157;-94
2022/02/28 05:44:17;;;;;;;14.33;5.10;;;3.90;99.90;;;;;;5190483;22;20158;-95
2022/02/28 05:46:23;;;;;;;9.77;4.90;;;3.80;99.90;;;;;;5163450;23;20156;-94
2022/02/28 05:48:50;;;;;;;9.27;4.30;;;3.80;99.90;;;;;;5188528;22;20186;-95
2022/02/28 05:51:13;;;;;;;13.73;5.77;;;3.90;99.90;;;;;;5166197;22;20199;-95
2022/02/28 05:53:14;;;;;;;12.93;4.83;;;3.80;99.90;;;;;;5165323;23;20157;-95
2022/02/28 05:55:15;;;;;;;11.90;4.60;;;3.80;99.90;;;;;;5164079;23;20178;-94
2022/02/28 05:57:25;;;;;;;14.07;4.87;;;3.70;99.90;;;;;;5181544;23;20225;-95
2022/02/28 05:59:46;;;;;;;12.83;5.67;;;3.70;99.90;;;;;;5146271;23;20155;-95
2022/02/28 06:02:00;;;;;;;15.63;5.40;;;3.60;99.90;;;;;;5172019;23;20146;-95
2022/02/28 06:04:01;;;;;;;16.57;5.77;;;3.70;99.90;;;;;;5144173;23;20167;-94
2022/02/28 06:06:04;;;;;;;16.53;6.13;;;3.70;99.90;;;;;;5194087;22;20647;-94
2022/02/28 06:08:07;;;;;;;15.17;5.73;;;3.70;99.90;;;;;;5144233;23;20151;-94
2022/02/28 06:10:08;;;;;;;18.80;7.17;;;3.60;99.90;;;;;;5169561;23;20699;-95
2022/02/28 06:12:19;;;;;;;19.33;6.27;;;3.70;99.90;;;;;;5143966;23;20148;-94
2022/02/28 06:14:25;;;;;;;16.17;6.27;;;3.70;99.90;;;;;;5169912;23;20150;-95
2022/02/28 06:16:31;;;;;;;19.90;6.57;;;3.70;99.90;;;;;;5143379;23;20586;-95
2022/02/28 06:18:37;;;;;;;17.57;6.43;;;3.60;99.90;;;;;;5144165;23;20609;-95
2022/02/28 06:23:19;;;;;;;;;;;;;;;;;;;;;
2022/02/28 06:25:22;;;;;;;21.60;6.30;;;3.70;99.90;;;;;;5168620;22;20253;-95
2022/02/28 06:27:25;;;;;;;14.40;6.33;;;3.80;99.90;;;;;;5143657;23;20166;-95
2022/02/28 06:29:25;;;;;;;17.60;6.47;;;3.80;99.90;;;;;;5149113;23;20150;-95
2022/02/28 06:31:43;;;;;;;11.90;5.43;;;3.70;99.90;;;;;;5198899;22;20151;-95
2022/02/28 06:33:43;;;;;;;17.10;5.93;;;3.60;99.90;;;;;;5168451;23;20143;-94
2022/02/28 06:35:48;;;;;;;16.40;6.50;;;3.60;99.90;;;;;;5168392;22;20170;-95
2022/02/28 06:37:51;;;;;;;18.53;6.17;;;3.30;99.90;;;;;;5167836;23;20151;-95
2022/02/28 06:40:05;;;;;;;13.63;5.87;;;3.00;99.90;;;;;;5192411;22;20146;-95
2022/02/28 06:42:10;;;;;;;16.50;6.47;;;2.90;99.90;;;;;;5171845;23;20180;-96
2022/02/28 06:44:11;;;;;;;18.93;6.80;;;2.90;99.90;;;;;;5145976;23;20152;-95
2022/02/28 06:46:14;;;;;;;16.90;6.07;;;3.10;99.90;;;;;;5197163;22;20477;-95
2022/02/28 06:48:18;;;;;;;17.30;5.63;;;3.40;99.90;;;;;;5146564;23;20602;-95
2022/02/28 06:50:21;;;;;;;12.63;5.70;;;4.00;99.90;;;;;;5145603;23;20186;-96
2022/02/28 06:52:26;;;;;;;22.30;6.30;;;4.40;99.90;;;;;;5170240;23;20490;-95
2022/02/28 06:54:27;;;;;;;12.10;5.93;;;4.80;99.90;;;;;;5170426;22;20296;-96
2022/02/28 06:56:29;;;;;;;15.93;6.23;;;5.60;99.90;;;;;;5196933;22;20149;-94
2022/02/28 06:58:36;;;;;;;13.47;5.83;;;6.30;99.90;;;;;;5195897;22;20600;-95
2022/02/28 07:00:37;;;;;;;16.27;5.90;;;6.70;99.90;;;;;;5171527;23;20217;-94
2022/02/28 07:02:41;;;;;;;13.13;6.37;;;7.10;99.90;;;;;;5146466;23;20151;-95
2022/02/28 07:04:47;;;;;;;15.90;5.93;;;7.50;99.90;;;;;;5170457;22;20182;-95
2022/02/28 07:07:00;;;;;;;14.73;7.17;;;7.80;99.90;;;;;;5146774;22;20159;-96
2022/02/28 07:09:10;;;;;;;21.57;6.80;;;8.10;99.90;;;;;;5145764;23;20155;-96
2022/02/28 07:11:19;;;;;;;12.70;5.93;;;8.50;99.90;;;;;;5195531;22;20186;-96
2022/02/28 07:13:35;;;;;;;14.20;5.93;;;8.70;99.90;;;;;;5145745;23;20151;-96
2022/02/28 07:15:42;;;;;;;16.57;6.13;;;9.20;99.90;;;;;;5145370;23;20167;-95
2022/02/28 07:17:46;;;;;;;16.33;5.70;;;9.70;99.90;;;;;;5154693;23;20206;-96
2022/02/28 07:19:50;;;;;;;14.13;6.03;;;9.50;99.90;;;;;;5191138;22;20166;-93
2022/02/28 07:21:56;;;;;;;14.87;5.93;;;9.70;99.90;;;;;;5143502;23;20156;-94
2022/02/28 07:24:10;;;;;;;15.83;6.07;;;10.10;99.90;;;;;;5188653;22;20181;-95
2022/02/28 07:26:19;;;;;;;11.43;5.53;;;10.10;99.90;;;;;;5172210;22;20576;-95
2022/02/28 07:28:30;;;;;;;14.20;5.80;;;9.90;99.90;;;;;;5170046;23;20151;-95
2022/02/28 07:30:32;;;;;;;12.47;5.50;;;9.90;99.90;;;;;;5146388;23;20226;-96
2022/02/28 07:32:32;;;;;;;13.13;5.70;;;9.90;99.90;;;;;;5144867;23;20159;-94
2022/02/28 07:34:35;;;;;;;12.07;5.63;;;9.30;99.90;;;;;;5198791;22;20146;-95
2022/02/28 07:36:36;;;;;;;14.20;5.13;;;9.10;99.90;;;;;;5144895;23;20158;-94
2022/02/28 07:38:39;;;;;;;9.83;5.43;;;9.20;99.90;;;;;;5169581;23;20210;-94
2022/02/28 07:40:40;;;;;;;13.03;5.03;;;9.40;99.90;;;;;;5171417;22;20570;-94
2022/02/28 07:42:41;;;;;;;13.67;5.07;;;9.50;99.90;;;;;;5169477;23;20154;-94
2022/02/28 07:44:42;;;;;;;13.57;5.90;;;9.50;99.90;;;;;;5143934;23;20163;-94
2022/02/28 07:46:43;;;;;;;15.60;5.20;;;9.40;99.90;;;;;;5145527;23;20159;-95
2022/02/28 07:48:44;;;;;;;15.60;5.40;;;9.00;99.90;;;;;;5194311;22;20620;-93
2022/02/28 07:50:45;;;;;;;12.20;4.80;;;9.30;99.90;;;;;;5170448;23;20261;-95
2022/02/28 07:52:48;;;;;;;15.63;5.13;;;9.30;99.90;;;;;;5144751;23;20162;-94
2022/02/28 07:54:49;;;;;;;8.80;4.50;;;9.30;99.90;;;;;;5144389;23;20175;-95
2022/02/28 07:56:50;;;;;;;10.43;5.30;;;9.50;99.90;;;;;;5169227;23;20151;-95
2022/02/28 07:58:51;;;;;;;10.93;5.77;;;9.60;99.90;;;;;;5144273;23;20156;-94
2022/02/28 08:00:52;;;;;;;13.63;5.37;;;9.60;99.90;;;;;;5169407;23;20147;-94
2022/02/28 08:02:53;;;;;;;11.90;5.43;;;9.40;99.90;;;;;;5169566;23;20245;-95
2022/02/28 08:04:53;;;;;;;12.50;5.63;;;9.70;99.90;;;;;;5144355;23;20181;-93
2022/02/28 08:06:56;;;;;;;9.07;4.97;;;9.60;99.90;;;;;;5143150;23;20168;-94
2022/02/28 08:08:56;;;;;;;13.73;4.83;;;9.40;99.90;;;;;;5168981;23;20205;-93
2022/02/28 08:10:57;;;;;;;11.93;4.90;;;9.30;99.90;;;;;;5169358;23;20497;-94
2022/02/28 08:12:58;;;;;;;12.23;5.10;;;9.20;99.90;;;;;;5143740;23;20170;-94
2022/02/28 08:14:59;;;;;;;12.30;5.20;;;8.70;99.90;;;;;;5170241;22;20194;-94
2022/02/28 08:17:03;;;;;;;8.37;5.03;;;8.80;99.90;;;;;;5169134;23;20147;-95
2022/02/28 08:19:04;;;;;;;10.33;5.50;;;9.10;99.90;;;;;;5145496;23;20152;-94
2022/02/28 08:21:05;;;;;;;11.53;5.30;;;9.70;99.90;;;;;;5195556;22;20176;-94
2022/02/28 08:23:07;;;;;;;12.63;5.53;;;10.20;99.90;;;;;;5144532;23;20205;-95
2022/02/28 08:25:09;;;;;;;8.20;4.70;;;10.50;99.90;;;;;;5169355;23;20163;-95
2022/02/28 08:27:10;;;;;;;11.73;5.30;;;10.60;99.90;;;;;;5169164;23;20509;-95
2022/02/28 08:29:11;;;;;;;11.45;5.57;;;11.40;99.90;;;;;;5146587;23;20143;-93
2022/02/28 08:31:12;;;;;;;11.70;5.80;;;11.40;99.90;;;;;;5195272;22;20186;-93
2022/02/28 08:33:21;;;;;;;11.23;5.78;;;11.10;99.90;;;;;;5168895;23;20147;-94
2022/02/28 08:35:22;;;;;;;12.68;5.70;;;11.40;99.90;;;;;;5144110;23;20175;-94
2022/02/28 08:37:25;;;;;;;11.85;5.57;;;11.60;99.90;;;;;;5197194;22;20147;-94
2022/02/28 08:39:28;;;;;;;12.27;5.32;;;11.50;99.90;;;;;;5170162;23;20158;-94
2022/02/28 08:41:29;;;;;;;12.45;5.75;;;11.90;99.90;;;;;;5145210;23;20194;-95
2022/02/28 08:43:35;;;;;;;15.43;6.28;;;12.10;99.90;;;;;;5147896;23;20155;-95
2022/02/28 08:45:48;;;;;;;16.05;6.05;;;12.30;99.90;;;;;;5198551;22;20638;-95
2022/02/28 08:47:54;;;;;;;14.15;6.38;;;12.20;99.90;;;;;;5145913;23;20160;-95
2022/02/28 08:49:55;;;;;;;10.70;5.68;;;12.00;99.90;;;;;;5197768;22;20225;-96
2022/02/28 08:51:55;;;;;;;16.23;6.70;;;11.60;99.90;;;;;;5169904;23;20151;-95
2022/02/28 08:53:56;;;;;;;11.15;5.45;;;11.60;99.90;;;;;;5169239;23;20174;-96
2022/02/28 08:55:57;;;;;;;16.05;6.05;;;12.00;99.90;;;;;;5146591;23;20197;-96
2022/02/28 08:58:04;;;;;;;14.35;7.13;;;12.20;99.90;;;;;;5146626;23;20151;-95
2022/02/28 09:00:09;;;;;;;14.65;6.70;;;12.40;99.90;;;;;;5198886;22;20158;-95
2022/02/28 09:02:10;;;;;;;13.63;5.82;;;12.50;99.90;;;;;;5170734;23;20147;-94
2022/02/28 09:04:10;;;;;;;14.52;6.25;;;12.80;99.90;;;;;;5171037;22;20227;-95
2022/02/28 09:06:15;;;;;;;17.77;6.80;;;13.10;99.90;;;;;;5145995;23;20172;-95
2022/02/28 09:08:16;;;;;;;13.75;6.22;;;13.10;99.90;;;;;;5145477;23;20261;-93
2022/02/28 09:10:19;;;;;;;16.70;6.75;;;13.10;99.90;;;;;;5169396;23;20182;-92
2022/02/28 09:12:23;;;;;;;12.65;5.47;;;12.40;99.90;;;;;;5193898;22;20154;-92
2022/02/28 09:14:24;;;;;;;17.20;6.40;;;12.80;99.90;;;;;;5144635;23;20155;-93
2022/02/28 09:16:25;;;;;;;13.70;6.00;;;13.20;99.90;;;;;;5169287;22;20167;-95
2022/02/28 09:18:26;;;;;;;19.77;5.90;;;13.20;99.90;;;;;;5146579;23;20170;-94
2022/02/28 09:20:27;;;;;;;13.65;5.63;;;13.30;99.90;;;;;;5146335;23;20603;-95
2022/02/28 09:22:32;;;;;;;11.27;5.72;;;12.90;99.90;;;;;;5154281;23;20135;-94
2022/02/28 09:24:34;;;;;;;15.60;6.10;;;12.50;99.90;;;;;;5212223;22;20153;-95
2022/02/28 09:26:36;;;;;;;12.48;5.93;;;11.60;99.90;;;;;;5184239;23;20203;-95
2022/02/28 09:28:37;;;;;;;19.90;6.43;;;11.50;99.90;;;;;;5210885;22;20154;-94
2022/02/28 09:30:37;;;;;;;10.10;5.93;;;11.60;99.90;;;;;;5186516;22;20213;-94
2022/02/28 09:32:40;;;;;;;12.43;6.45;;;11.80;99.90;;;;;;5163870;23;20143;-91
2022/02/28 09:34:52;;;;;;;12.20;6.10;;;11.50;99.90;;;;;;5190641;22;20213;-93
2022/02/28 09:36:53;;;;;;;12.15;5.95;;;11.40;99.90;;;;;;5190472;22;20164;-92
2022/02/28 09:38:54;;;;;;;14.38;5.55;;;11.70;99.90;;;;;;5166078;23;20151;-92
2022/02/28 09:40:57;;;;;;;14.75;6.00;;;12.00;99.90;;;;;;5166318;23;20215;-93
2022/02/28 09:43:18;;;;;;;13.07;6.47;;;12.20;99.90;;;;;;5189779;22;20205;-93
2022/02/28 09:45:38;;;;;;;19.48;6.35;;;12.20;99.90;;;;;;5186543;22;20197;-94
2022/02/28 09:47:58;;;;;;;11.52;5.93;;;12.50;99.90;;;;;;5189829;22;20145;-94
2022/02/28 09:50:18;;;;;;;11.43;6.10;;;11.80;99.90;;;;;;5188908;22;20189;-92
2022/02/28 09:52:44;;;;;;;17.50;7.63;;;11.60;99.90;;;;;;5187996;23;20150;-92
2022/02/28 09:55:04;;;;;;;16.73;6.30;;;11.80;99.90;;;;;;5188371;22;20212;-92
2022/02/28 09:57:16;;;;;;;14.48;6.00;;;12.10;99.90;;;;;;5181112;23;20552;-93
2022/02/28 09:59:38;;;;;;;13.55;6.45;;;11.60;99.90;;;;;;5179618;22;20154;-93
2022/02/28 10:01:44;;;;;;;15.32;6.45;;;11.90;99.90;;;;;;5145339;23;20295;-92
2022/02/28 10:03:54;;;;;;;15.20;6.22;;;11.60;99.90;;;;;;5169835;23;20154;-95
2022/02/28 10:11:24;;;;;;;15.38;5.90;;;10.70;99.90;;;;;;5143420;23;20162;-92
2022/02/28 10:13:53;;;;;;;16.73;6.23;;;10.30;99.90;;;;;;5132944;23;20166;-94
2022/02/28 10:16:42;;;;;;;18.10;6.07;;;9.90;99.90;;;;;;5118571;23;20258;-93
2022/02/28 10:22:57;;;;;;;16.20;6.40;;;9.60;99.90;;;;;;5038245;23;20161;-95
2022/02/28 10:24:58;;;;;;;13.67;6.37;;;9.70;99.90;;;;;;5021851;23;20189;-95
2022/02/28 10:27:22;;;;;;;16.83;6.00;;;9.80;99.90;;;;;;5065483;23;20149;-96
2022/02/28 10:29:52;;;;;;;11.50;5.83;;;9.80;99.90;;;;;;5072281;23;20221;-96
2022/02/28 10:32:14;;;;;;;12.73;5.40;;;9.90;99.90;;;;;;5045928;23;20533;-96
2022/02/28 10:37:42;;;;;;;10.10;5.33;;;10.00;99.90;;;;;;5170899;23;20620;-95
2022/02/28 10:40:10;;;;;;;10.00;5.60;;;9.80;99.90;;;;;;5194120;22;20146;-95
2022/02/28 10:42:18;;;;;;;11.30;5.50;;;9.80;99.90;;;;;;5143525;23;20147;-96
2022/02/28 10:44:20;;;;;;;12.93;5.77;;;10.00;99.90;;;;;;5144943;23;20558;-96
2022/02/28 10:46:45;;;;;;;12.97;5.97;;;10.00;99.90;;;;;;5143166;23;20594;-92
2022/02/28 10:49:07;;;;;;;12.40;5.60;;;10.20;99.90;;;;;;5143016;23;20158;-95
2022/02/28 10:51:16;;;;;;;8.23;5.03;;;10.60;99.90;;;;;;5193317;22;20181;-95
2022/02/28 10:53:20;;;;;;;10.50;6.00;;;10.80;99.90;;;;;;5143530;23;20490;-94
2022/02/28 10:55:31;;;;;;;10.20;5.50;;;10.70;99.90;;;;;;5143237;23;20203;-95
2022/02/28 10:58:24;;;;;;;12.67;5.80;;;10.60;99.90;;;;;;5168064;23;20155;-96
2022/02/28 11:00:47;;;;;;;13.77;5.47;;;10.60;99.90;;;;;;5143709;23;20209;-94
2022/02/28 11:03:13;;;;;;;10.47;5.07;;;10.60;99.90;;;;;;5143374;23;20163;-96
2022/02/28 11:05:31;;;;;;;12.87;5.10;;;10.80;99.90;;;;;;5169893;23;20213;-96
2022/02/28 11:07:59;;;;;;;;;;;;;;;;;;;;;
2022/02/28 11:10:35;;;;;;;13.60;6.03;;;11.10;99.90;;;;;;5172344;23;20178;-95
2022/02/28 11:12:59;;;;;;;13.57;6.10;;;11.00;99.90;;;;;;5169741;23;20191;-94
2022/02/28 11:15:15;;;;;;;;;;;;;;;;;;;;;
2022/02/28 11:17:22;;;;;;;13.17;5.87;;;10.90;99.90;;;;;;5193928;22;20162;-94